sensor_id;sensor_type;location;lat;lon;timestamp;temperature;humidity
3281;DHT22;1652;51.31805600;6.20194400;2023-12-07T00:00:03;2.30;99.90
3281;DHT22;1652;51.31805600;6.20194400;2023-12-07T00:02:31;2.30;99.90
3281;DHT22;1652;51.31805600;6.20194400;2023-12-07T00:04:58;2.30;99.90
3281;DHT22;1652;51.31805600;6.20194400;2023-12-07T00:07:24;2.10;99.90
3281;DHT22;1652;51.31805600;6.20194400;2023-12-07T00:09:51;2.10;99.90
3281;DHT22;1652;51.31805600;6.20194400;2023-12-07T00:12:18;2.00;99.90
3281;DHT22;1652;51.31805600;6.20194400;2023-12-07T00:14:45;1.80;99.90
3281;DHT22;1652;51.31805600;6.20194400;2023-12-07T00:17:12;1.80;99.90
3281;DHT22;1652;51.31805600;6.20194400;2023-12-07T00:19:40;1.80;99.90
3281;DHT22;1652;51.31805600;6.20194400;2023-12-07T00:22:07;1.70;99.90
3281;DHT22;1652;51.31805600;6.20194400;2023-12-07T00:24:34;1.60;99.90
3281;DHT22;1652;51.31805600;6.20194400;2023-12-07T00:27:01;1.50;99.90
3281;DHT22;1652;51.31805600;6.20194400;2023-12-07T00:29:28;1.30;99.90
3281;DHT22;1652;51.31805600;6.20194400;2023-12-07T00:31:55;1.30;99.90
3281;DHT22;1652;51.31805600;6.20194400;2023-12-07T00:34:22;1.20;99.90
3281;DHT22;1652;51.31805600;6.20194400;2023-12-07T00:36:49;1.10;99.90
3281;DHT22;1652;51.31805600;6.20194400;2023-12-07T00:39:16;0.90;99.90
3281;DHT22;1652;51.31805600;6.20194400;2023-12-07T00:41:43;0.90;99.90
3281;DHT22;1652;51.31805600;6.20194400;2023-12-07T00:44:10;0.90;99.90
3281;DHT22;1652;51.31805600;6.20194400;2023-12-07T00:46:37;0.80;99.90
3281;DHT22;1652;51.31805600;6.20194400;2023-12-07T00:49:04;0.80;99.90
3281;DHT22;1652;51.31805600;6.20194400;2023-12-07T00:51:31;0.60;99.90
3281;DHT22;1652;51.31805600;6.20194400;2023-12-07T00:53:58;0.50;99.90
3281;DHT22;1652;51.31805600;6.20194400;2023-12-07T00:56:25;0.50;99.90
3281;DHT22;1652;51.31805600;6.20194400;2023-12-07T00:58:52;0.50;99.90
3281;DHT22;1652;51.31805600;6.20194400;2023-12-07T01:01:19;0.50;99.90
3281;DHT22;1652;51.31805600;6.20194400;2023-12-07T01:03:46;0.50;99.90
3281;DHT22;1652;51.31805600;6.20194400;2023-12-07T01:06:13;0.50;99.90
3281;DHT22;1652;51.31805600;6.20194400;2023-12-07T01:08:40;0.70;99.90
3281;DHT22;1652;51.31805600;6.20194400;2023-12-07T01:11:08;0.70;99.90
3281;DHT22;1652;51.31805600;6.20194400;2023-12-07T01:13:35;0.60;99.90
3281;DHT22;1652;51.31805600;6.20194400;2023-12-07T01:16:03;0.50;99.90
3281;DHT22;1652;51.31805600;6.20194400;2023-12-07T01:18:30;0.30;99.90
3281;DHT22;1652;51.31805600;6.20194400;2023-12-07T01:20:57;0.30;99.90
3281;DHT22;1652;51.31805600;6.20194400;2023-12-07T01:23:24;0.20;99.90
3281;DHT22;1652;51.31805600;6.20194400;2023-12-07T01:25:50;0.10;99.90
3281;DHT22;1652;51.31805600;6.20194400;2023-12-07T01:28:17;0.00;99.90
3281;DHT22;1652;51.31805600;6.20194400;2023-12-07T01:30:45;-0.10;99.90
3281;DHT22;1652;51.31805600;6.20194400;2023-12-07T01:33:12;-0.10;99.90
3281;DHT22;1652;51.31805600;6.20194400;2023-12-07T01:35:39;-0.20;99.90
3281;DHT22;1652;51.31805600;6.20194400;2023-12-07T01:38:06;-0.20;99.90
3281;DHT22;1652;51.31805600;6.20194400;2023-12-07T01:40:33;-0.20;99.90
3281;DHT22;1652;51.31805600;6.20194400;2023-12-07T01:43:01;-0.10;99.90
3281;DHT22;1652;51.31805600;6.20194400;2023-12-07T01:45:28;0.00;99.90
3281;DHT22;1652;51.31805600;6.20194400;2023-12-07T01:47:55;0.20;99.90
3281;DHT22;1652;51.31805600;6.20194400;2023-12-07T01:50:23;0.30;99.90
3281;DHT22;1652;51.31805600;6.20194400;2023-12-07T01:52:54;0.30;99.90
3281;DHT22;1652;51.31805600;6.20194400;2023-12-07T01:55:24;0.20;99.90
3281;DHT22;1652;51.31805600;6.20194400;2023-12-07T01:57:53;0.30;99.90
3281;DHT22;1652;51.31805600;6.20194400;2023-12-07T02:00:20;0.20;99.90
3281;DHT22;1652;51.31805600;6.20194400;2023-12-07T02:02:47;0.10;99.90
3281;DHT22;1652;51.31805600;6.20194400;2023-12-07T02:05:14;0.00;99.90
3281;DHT22;1652;51.31805600;6.20194400;2023-12-07T02:07:41;0.00;99.90
3281;DHT22;1652;51.31805600;6.20194400;2023-12-07T02:10:10;0.10;99.90
3281;DHT22;1652;51.31805600;6.20194400;2023-12-07T02:12:37;0.10;99.90
3281;DHT22;1652;51.31805600;6.20194400;2023-12-07T02:15:05;0.10;99.90
3281;DHT22;1652;51.31805600;6.20194400;2023-12-07T02:17:35;0.10;99.90
3281;DHT22;1652;51.31805600;6.20194400;2023-12-07T02:21:13;0.00;99.90
3281;DHT22;1652;51.31805600;6.20194400;2023-12-07T02:23:08;0.10;99.90
3281;DHT22;1652;51.31805600;6.20194400;2023-12-07T02:25:45;0.10;99.90
3281;DHT22;1652;51.31805600;6.20194400;2023-12-07T02:28:14;0.10;99.90
3281;DHT22;1652;51.31805600;6.20194400;2023-12-07T02:30:41;0.10;99.90
3281;DHT22;1652;51.31805600;6.20194400;2023-12-07T02:33:08;0.00;99.90
3281;DHT22;1652;51.31805600;6.20194400;2023-12-07T02:35:37;0.10;99.90
3281;DHT22;1652;51.31805600;6.20194400;2023-12-07T02:38:05;0.10;99.90
3281;DHT22;1652;51.31805600;6.20194400;2023-12-07T02:40:33;0.00;99.90
3281;DHT22;1652;51.31805600;6.20194400;2023-12-07T02:43:01;0.00;99.90
3281;DHT22;1652;51.31805600;6.20194400;2023-12-07T02:45:28;-0.10;99.90
3281;DHT22;1652;51.31805600;6.20194400;2023-12-07T02:47:57;0.00;99.90
3281;DHT22;1652;51.31805600;6.20194400;2023-12-07T02:50:25;0.10;99.90
3281;DHT22;1652;51.31805600;6.20194400;2023-12-07T02:52:52;0.10;99.90
3281;DHT22;1652;51.31805600;6.20194400;2023-12-07T02:55:19;0.20;99.90
3281;DHT22;1652;51.31805600;6.20194400;2023-12-07T02:57:46;0.40;99.90
3281;DHT22;1652;51.31805600;6.20194400;2023-12-07T03:00:13;0.40;99.90
3281;DHT22;1652;51.31805600;6.20194400;2023-12-07T03:02:41;0.50;99.90
3281;DHT22;1652;51.31805600;6.20194400;2023-12-07T03:05:08;0.60;99.90
3281;DHT22;1652;51.31805600;6.20194400;2023-12-07T03:07:35;0.70;99.90
3281;DHT22;1652;51.31805600;6.20194400;2023-12-07T03:10:03;0.80;99.90
3281;DHT22;1652;51.31805600;6.20194400;2023-12-07T03:12:30;0.90;99.90
3281;DHT22;1652;51.31805600;6.20194400;2023-12-07T03:14:57;0.90;99.90
3281;DHT22;1652;51.31805600;6.20194400;2023-12-07T03:17:24;1.00;99.90
3281;DHT22;1652;51.31805600;6.20194400;2023-12-07T03:19:51;1.00;99.90
3281;DHT22;1652;51.31805600;6.20194400;2023-12-07T03:22:18;1.20;99.90
3281;DHT22;1652;51.31805600;6.20194400;2023-12-07T03:24:51;1.20;99.90
3281;DHT22;1652;51.31805600;6.20194400;2023-12-07T03:27:18;1.30;99.90
3281;DHT22;1652;51.31805600;6.20194400;2023-12-07T03:29:45;1.30;99.90
3281;DHT22;1652;51.31805600;6.20194400;2023-12-07T03:32:12;1.30;99.90
3281;DHT22;1652;51.31805600;6.20194400;2023-12-07T03:34:39;1.40;99.90
3281;DHT22;1652;51.31805600;6.20194400;2023-12-07T03:37:06;1.30;99.90
3281;DHT22;1652;51.31805600;6.20194400;2023-12-07T03:39:33;1.40;99.90
3281;DHT22;1652;51.31805600;6.20194400;2023-12-07T03:42:00;1.30;99.90
3281;DHT22;1652;51.31805600;6.20194400;2023-12-07T03:44:27;1.30;99.90
3281;DHT22;1652;51.31805600;6.20194400;2023-12-07T03:46:54;1.30;99.90
3281;DHT22;1652;51.31805600;6.20194400;2023-12-07T03:49:21;1.30;99.90
3281;DHT22;1652;51.31805600;6.20194400;2023-12-07T03:51:48;1.40;99.90
3281;DHT22;1652;51.31805600;6.20194400;2023-12-07T03:54:15;1.30;99.90
3281;DHT22;1652;51.31805600;6.20194400;2023-12-07T03:56:42;1.30;99.90
3281;DHT22;1652;51.31805600;6.20194400;2023-12-07T03:59:09;1.30;99.90
3281;DHT22;1652;51.31805600;6.20194400;2023-12-07T04:01:36;1.40;99.90
3281;DHT22;1652;51.31805600;6.20194400;2023-12-07T04:04:03;1.40;99.90
3281;DHT22;1652;51.31805600;6.20194400;2023-12-07T04:06:32;1.40;99.90
3281;DHT22;1652;51.31805600;6.20194400;2023-12-07T04:08:59;1.30;99.90
3281;DHT22;1652;51.31805600;6.20194400;2023-12-07T04:11:26;1.40;99.90
3281;DHT22;1652;51.31805600;6.20194400;2023-12-07T04:13:53;1.40;99.90
3281;DHT22;1652;51.31805600;6.20194400;2023-12-07T04:16:20;1.40;99.90
3281;DHT22;1652;51.31805600;6.20194400;2023-12-07T04:18:47;1.40;99.90
3281;DHT22;1652;51.31805600;6.20194400;2023-12-07T04:21:15;1.50;99.90
3281;DHT22;1652;51.31805600;6.20194400;2023-12-07T04:23:41;1.40;99.90
3281;DHT22;1652;51.31805600;6.20194400;2023-12-07T04:26:09;1.40;99.90
3281;DHT22;1652;51.31805600;6.20194400;2023-12-07T04:28:36;1.30;99.90
3281;DHT22;1652;51.31805600;6.20194400;2023-12-07T04:31:03;1.40;99.90
3281;DHT22;1652;51.31805600;6.20194400;2023-12-07T04:33:30;1.40;99.90
3281;DHT22;1652;51.31805600;6.20194400;2023-12-07T04:35:57;1.40;99.90
3281;DHT22;1652;51.31805600;6.20194400;2023-12-07T04:38:24;1.40;99.90
3281;DHT22;1652;51.31805600;6.20194400;2023-12-07T04:40:50;1.50;99.90
3281;DHT22;1652;51.31805600;6.20194400;2023-12-07T04:43:17;1.40;99.90
3281;DHT22;1652;51.31805600;6.20194400;2023-12-07T04:45:44;1.30;99.90
3281;DHT22;1652;51.31805600;6.20194400;2023-12-07T04:48:11;1.30;99.90
3281;DHT22;1652;51.31805600;6.20194400;2023-12-07T04:50:39;1.30;99.90
3281;DHT22;1652;51.31805600;6.20194400;2023-12-07T04:53:05;1.30;99.90
3281;DHT22;1652;51.31805600;6.20194400;2023-12-07T04:55:32;1.40;99.90
3281;DHT22;1652;51.31805600;6.20194400;2023-12-07T04:57:59;1.50;99.90
3281;DHT22;1652;51.31805600;6.20194400;2023-12-07T05:00:26;1.40;99.90
3281;DHT22;1652;51.31805600;6.20194400;2023-12-07T05:02:54;1.40;99.90
3281;DHT22;1652;51.31805600;6.20194400;2023-12-07T05:05:21;1.40;99.90
3281;DHT22;1652;51.31805600;6.20194400;2023-12-07T05:07:48;1.40;99.90
3281;DHT22;1652;51.31805600;6.20194400;2023-12-07T05:10:15;1.50;99.90
3281;DHT22;1652;51.31805600;6.20194400;2023-12-07T05:12:42;1.50;99.90
3281;DHT22;1652;51.31805600;6.20194400;2023-12-07T05:15:09;1.50;99.90
3281;DHT22;1652;51.31805600;6.20194400;2023-12-07T05:17:36;1.60;99.90
3281;DHT22;1652;51.31805600;6.20194400;2023-12-07T05:20:04;1.60;99.90
3281;DHT22;1652;51.31805600;6.20194400;2023-12-07T05:22:31;1.70;99.90
3281;DHT22;1652;51.31805600;6.20194400;2023-12-07T05:24:58;1.80;99.90
3281;DHT22;1652;51.31805600;6.20194400;2023-12-07T05:27:25;1.80;99.90
3281;DHT22;1652;51.31805600;6.20194400;2023-12-07T05:29:53;1.70;99.90
3281;DHT22;1652;51.31805600;6.20194400;2023-12-07T05:32:20;1.80;99.90
3281;DHT22;1652;51.31805600;6.20194400;2023-12-07T05:34:47;1.80;99.90
3281;DHT22;1652;51.31805600;6.20194400;2023-12-07T05:37:14;1.70;99.90
3281;DHT22;1652;51.31805600;6.20194400;2023-12-07T05:39:41;1.80;99.90
3281;DHT22;1652;51.31805600;6.20194400;2023-12-07T05:42:08;1.80;99.90
3281;DHT22;1652;51.31805600;6.20194400;2023-12-07T05:44:35;1.80;99.90
3281;DHT22;1652;51.31805600;6.20194400;2023-12-07T05:47:02;1.90;99.90
3281;DHT22;1652;51.31805600;6.20194400;2023-12-07T05:49:28;1.90;99.90
3281;DHT22;1652;51.31805600;6.20194400;2023-12-07T05:51:55;1.90;99.90
3281;DHT22;1652;51.31805600;6.20194400;2023-12-07T05:54:22;1.90;99.90
3281;DHT22;1652;51.31805600;6.20194400;2023-12-07T05:56:49;1.90;99.90
3281;DHT22;1652;51.31805600;6.20194400;2023-12-07T05:59:17;1.90;99.90
3281;DHT22;1652;51.31805600;6.20194400;2023-12-07T06:01:44;1.90;99.90
3281;DHT22;1652;51.31805600;6.20194400;2023-12-07T06:04:11;1.90;99.90
3281;DHT22;1652;51.31805600;6.20194400;2023-12-07T06:06:39;1.90;99.90
3281;DHT22;1652;51.31805600;6.20194400;2023-12-07T06:09:06;1.90;99.90
3281;DHT22;1652;51.31805600;6.20194400;2023-12-07T06:11:35;2.00;99.90
3281;DHT22;1652;51.31805600;6.20194400;2023-12-07T06:14:02;2.10;99.90
3281;DHT22;1652;51.31805600;6.20194400;2023-12-07T06:18:55;2.00;99.90
3281;DHT22;1652;51.31805600;6.20194400;2023-12-07T06:21:22;2.00;99.90
3281;DHT22;1652;51.31805600;6.20194400;2023-12-07T06:23:49;2.00;99.90
3281;DHT22;1652;51.31805600;6.20194400;2023-12-07T06:26:16;2.00;99.90
3281;DHT22;1652;51.31805600;6.20194400;2023-12-07T06:28:43;2.10;99.90
3281;DHT22;1652;51.31805600;6.20194400;2023-12-07T06:31:11;2.10;99.90
3281;DHT22;1652;51.31805600;6.20194400;2023-12-07T06:33:39;2.10;99.90
3281;DHT22;1652;51.31805600;6.20194400;2023-12-07T06:36:07;2.10;99.90
3281;DHT22;1652;51.31805600;6.20194400;2023-12-07T06:38:33;2.10;99.90
3281;DHT22;1652;51.31805600;6.20194400;2023-12-07T06:41:00;2.00;99.90
3281;DHT22;1652;51.31805600;6.20194400;2023-12-07T06:43:27;2.00;99.90
3281;DHT22;1652;51.31805600;6.20194400;2023-12-07T06:45:54;2.00;99.90
3281;DHT22;1652;51.31805600;6.20194400;2023-12-07T06:48:21;2.00;99.90
3281;DHT22;1652;51.31805600;6.20194400;2023-12-07T06:50:48;2.00;99.90
3281;DHT22;1652;51.31805600;6.20194400;2023-12-07T06:53:15;2.00;99.90
3281;DHT22;1652;51.31805600;6.20194400;2023-12-07T06:55:42;2.00;99.90
3281;DHT22;1652;51.31805600;6.20194400;2023-12-07T06:58:11;2.00;99.90
3281;DHT22;1652;51.31805600;6.20194400;2023-12-07T07:00:38;2.10;99.90
3281;DHT22;1652;51.31805600;6.20194400;2023-12-07T07:03:05;2.00;99.90
3281;DHT22;1652;51.31805600;6.20194400;2023-12-07T07:05:33;2.00;99.00
3281;DHT22;1652;51.31805600;6.20194400;2023-12-07T07:08:00;2.00;99.90
3281;DHT22;1652;51.31805600;6.20194400;2023-12-07T07:10:27;2.00;99.90
3281;DHT22;1652;51.31805600;6.20194400;2023-12-07T07:12:54;2.00;99.90
3281;DHT22;1652;51.31805600;6.20194400;2023-12-07T07:15:21;2.00;99.90
3281;DHT22;1652;51.31805600;6.20194400;2023-12-07T07:17:49;2.10;99.90
3281;DHT22;1652;51.31805600;6.20194400;2023-12-07T07:20:16;2.10;99.90
3281;DHT22;1652;51.31805600;6.20194400;2023-12-07T07:22:44;2.10;99.90
3281;DHT22;1652;51.31805600;6.20194400;2023-12-07T07:25:11;2.10;99.90
3281;DHT22;1652;51.31805600;6.20194400;2023-12-07T07:27:38;2.10;99.90
3281;DHT22;1652;51.31805600;6.20194400;2023-12-07T07:30:06;2.20;99.90
3281;DHT22;1652;51.31805600;6.20194400;2023-12-07T07:32:34;2.20;99.90
3281;DHT22;1652;51.31805600;6.20194400;2023-12-07T07:35:01;2.20;99.90
3281;DHT22;1652;51.31805600;6.20194400;2023-12-07T07:37:28;2.20;99.90
3281;DHT22;1652;51.31805600;6.20194400;2023-12-07T07:39:55;2.20;99.90
3281;DHT22;1652;51.31805600;6.20194400;2023-12-07T07:42:22;2.20;99.90
3281;DHT22;1652;51.31805600;6.20194400;2023-12-07T07:44:48;2.10;99.90
3281;DHT22;1652;51.31805600;6.20194400;2023-12-07T07:47:15;2.20;99.90
3281;DHT22;1652;51.31805600;6.20194400;2023-12-07T07:49:42;2.30;99.90
3281;DHT22;1652;51.31805600;6.20194400;2023-12-07T07:52:09;2.30;99.90
3281;DHT22;1652;51.31805600;6.20194400;2023-12-07T07:54:36;2.30;99.90
3281;DHT22;1652;51.31805600;6.20194400;2023-12-07T07:57:03;2.30;99.90
3281;DHT22;1652;51.31805600;6.20194400;2023-12-07T07:59:31;2.30;97.20
3281;DHT22;1652;51.31805600;6.20194400;2023-12-07T08:01:58;2.30;99.90
3281;DHT22;1652;51.31805600;6.20194400;2023-12-07T08:04:25;2.30;95.90
3281;DHT22;1652;51.31805600;6.20194400;2023-12-07T08:06:52;2.40;90.60
3281;DHT22;1652;51.31805600;6.20194400;2023-12-07T08:09:18;2.40;61.80
3281;DHT22;1652;51.31805600;6.20194400;2023-12-07T08:11:45;2.50;69.00
3281;DHT22;1652;51.31805600;6.20194400;2023-12-07T08:14:12;2.40;67.90
3281;DHT22;1652;51.31805600;6.20194400;2023-12-07T08:16:45;2.50;99.90
3281;DHT22;1652;51.31805600;6.20194400;2023-12-07T08:19:13;2.50;11.10
3281;DHT22;1652;51.31805600;6.20194400;2023-12-07T08:21:40;2.50;1.00
3281;DHT22;1652;51.31805600;6.20194400;2023-12-07T08:24:07;2.50;1.00
3281;DHT22;1652;51.31805600;6.20194400;2023-12-07T08:26:35;2.40;1.00
3281;DHT22;1652;51.31805600;6.20194400;2023-12-07T08:29:02;2.40;1.00
3281;DHT22;1652;51.31805600;6.20194400;2023-12-07T08:31:31;2.50;1.00
3281;DHT22;1652;51.31805600;6.20194400;2023-12-07T08:33:58;2.40;1.00
3281;DHT22;1652;51.31805600;6.20194400;2023-12-07T08:36:27;2.60;47.40
3281;DHT22;1652;51.31805600;6.20194400;2023-12-07T08:38:54;2.50;1.00
3281;DHT22;1652;51.31805600;6.20194400;2023-12-07T08:41:21;2.50;1.00
3281;DHT22;1652;51.31805600;6.20194400;2023-12-07T08:43:47;2.60;1.00
3281;DHT22;1652;51.31805600;6.20194400;2023-12-07T08:46:16;2.70;1.00
3281;DHT22;1652;51.31805600;6.20194400;2023-12-07T08:48:43;2.70;1.00
3281;DHT22;1652;51.31805600;6.20194400;2023-12-07T08:51:10;2.70;1.00
3281;DHT22;1652;51.31805600;6.20194400;2023-12-07T08:53:38;2.70;1.00
3281;DHT22;1652;51.31805600;6.20194400;2023-12-07T08:56:05;2.70;1.00
3281;DHT22;1652;51.31805600;6.20194400;2023-12-07T08:58:32;2.70;1.00
3281;DHT22;1652;51.31805600;6.20194400;2023-12-07T09:00:59;2.60;1.00
3281;DHT22;1652;51.31805600;6.20194400;2023-12-07T09:03:27;2.60;1.00
3281;DHT22;1652;51.31805600;6.20194400;2023-12-07T09:05:55;2.60;1.00
3281;DHT22;1652;51.31805600;6.20194400;2023-12-07T09:08:22;2.60;1.00
3281;DHT22;1652;51.31805600;6.20194400;2023-12-07T09:10:49;2.70;1.00
3281;DHT22;1652;51.31805600;6.20194400;2023-12-07T09:13:18;2.70;1.00
3281;DHT22;1652;51.31805600;6.20194400;2023-12-07T09:15:45;2.60;1.00
3281;DHT22;1652;51.31805600;6.20194400;2023-12-07T09:18:12;2.50;1.00
3281;DHT22;1652;51.31805600;6.20194400;2023-12-07T09:20:40;2.60;1.00
3281;DHT22;1652;51.31805600;6.20194400;2023-12-07T09:23:13;2.60;1.00
3281;DHT22;1652;51.31805600;6.20194400;2023-12-07T09:25:42;2.60;1.00
3281;DHT22;1652;51.31805600;6.20194400;2023-12-07T09:28:10;2.50;99.90
3281;DHT22;1652;51.31805600;6.20194400;2023-12-07T09:30:37;2.50;1.00
3281;DHT22;1652;51.31805600;6.20194400;2023-12-07T09:33:04;2.50;1.00
3281;DHT22;1652;51.31805600;6.20194400;2023-12-07T09:35:31;2.50;1.00
3281;DHT22;1652;51.31805600;6.20194400;2023-12-07T09:37:58;2.50;1.00
3281;DHT22;1652;51.31805600;6.20194400;2023-12-07T09:40:25;2.40;99.90
3281;DHT22;1652;51.31805600;6.20194400;2023-12-07T09:42:52;2.50;1.00
3281;DHT22;1652;51.31805600;6.20194400;2023-12-07T09:45:20;2.40;99.90
3281;DHT22;1652;51.31805600;6.20194400;2023-12-07T09:47:52;2.50;1.00
3281;DHT22;1652;51.31805600;6.20194400;2023-12-07T09:50:21;2.50;1.00
3281;DHT22;1652;51.31805600;6.20194400;2023-12-07T09:52:56;2.70;1.00
3281;DHT22;1652;51.31805600;6.20194400;2023-12-07T09:55:34;2.70;1.00
3281;DHT22;1652;51.31805600;6.20194400;2023-12-07T09:58:04;2.70;99.90
3281;DHT22;1652;51.31805600;6.20194400;2023-12-07T10:00:33;2.60;99.90
3281;DHT22;1652;51.31805600;6.20194400;2023-12-07T10:03:01;2.60;99.90
3281;DHT22;1652;51.31805600;6.20194400;2023-12-07T10:05:28;2.40;99.90
3281;DHT22;1652;51.31805600;6.20194400;2023-12-07T10:07:55;2.50;99.90
3281;DHT22;1652;51.31805600;6.20194400;2023-12-07T10:10:22;2.30;23.30
3281;DHT22;1652;51.31805600;6.20194400;2023-12-07T10:12:53;2.30;99.90
3281;DHT22;1652;51.31805600;6.20194400;2023-12-07T10:15:22;2.30;99.90
3281;DHT22;1652;51.31805600;6.20194400;2023-12-07T10:17:54;2.30;99.90
3281;DHT22;1652;51.31805600;6.20194400;2023-12-07T10:20:28;2.30;99.90
3281;DHT22;1652;51.31805600;6.20194400;2023-12-07T10:23:07;2.30;99.90
3281;DHT22;1652;51.31805600;6.20194400;2023-12-07T10:25:39;2.30;99.90
3281;DHT22;1652;51.31805600;6.20194400;2023-12-07T10:28:10;2.40;99.90
3281;DHT22;1652;51.31805600;6.20194400;2023-12-07T10:30:40;2.40;99.90
3281;DHT22;1652;51.31805600;6.20194400;2023-12-07T10:33:10;2.40;99.90
3281;DHT22;1652;51.31805600;6.20194400;2023-12-07T10:35:41;2.50;1.00
3281;DHT22;1652;51.31805600;6.20194400;2023-12-07T10:38:09;2.60;99.90
3281;DHT22;1652;51.31805600;6.20194400;2023-12-07T10:40:36;2.60;55.50
3281;DHT22;1652;51.31805600;6.20194400;2023-12-07T10:43:07;2.70;99.90
3281;DHT22;1652;51.31805600;6.20194400;2023-12-07T10:45:36;2.70;99.90
3281;DHT22;1652;51.31805600;6.20194400;2023-12-07T10:48:08;2.70;1.00
3281;DHT22;1652;51.31805600;6.20194400;2023-12-07T10:50:45;2.80;88.80
3281;DHT22;1652;51.31805600;6.20194400;2023-12-07T10:53:27;2.90;1.00
3281;DHT22;1652;51.31805600;6.20194400;2023-12-07T10:56:00;3.00;1.00
3281;DHT22;1652;51.31805600;6.20194400;2023-12-07T10:58:27;3.10;1.00
3281;DHT22;1652;51.31805600;6.20194400;2023-12-07T11:00:56;3.20;1.00
3281;DHT22;1652;51.31805600;6.20194400;2023-12-07T11:03:25;3.20;1.00
3281;DHT22;1652;51.31805600;6.20194400;2023-12-07T11:05:53;3.30;1.00
3281;DHT22;1652;51.31805600;6.20194400;2023-12-07T11:13:29;3.20;1.00
3281;DHT22;1652;51.31805600;6.20194400;2023-12-07T11:16:00;3.20;1.00
3281;DHT22;1652;51.31805600;6.20194400;2023-12-07T11:18:28;3.30;1.00
3281;DHT22;1652;51.31805600;6.20194400;2023-12-07T11:20:56;3.40;1.00
3281;DHT22;1652;51.31805600;6.20194400;2023-12-07T11:23:23;3.30;1.00
3281;DHT22;1652;51.31805600;6.20194400;2023-12-07T11:25:52;3.30;1.00
3281;DHT22;1652;51.31805600;6.20194400;2023-12-07T11:28:35;3.30;27.50
3281;DHT22;1652;51.31805600;6.20194400;2023-12-07T11:31:03;3.30;1.00
3281;DHT22;1652;51.31805600;6.20194400;2023-12-07T11:33:30;3.30;1.00
3281;DHT22;1652;51.31805600;6.20194400;2023-12-07T11:36:03;3.40;1.00
3281;DHT22;1652;51.31805600;6.20194400;2023-12-07T11:38:31;3.40;1.00
3281;DHT22;1652;51.31805600;6.20194400;2023-12-07T11:40:59;3.40;1.00
3281;DHT22;1652;51.31805600;6.20194400;2023-12-07T11:46:00;3.40;1.00
3281;DHT22;1652;51.31805600;6.20194400;2023-12-07T11:48:27;3.40;1.00
3281;DHT22;1652;51.31805600;6.20194400;2023-12-07T11:53:24;3.40;99.90
3281;DHT22;1652;51.31805600;6.20194400;2023-12-07T11:55:52;3.40;99.90
3281;DHT22;1652;51.31805600;6.20194400;2023-12-07T11:58:19;3.40;1.00
3281;DHT22;1652;51.31805600;6.20194400;2023-12-07T12:00:47;3.50;99.90
3281;DHT22;1652;51.31805600;6.20194400;2023-12-07T12:03:14;3.50;99.90
3281;DHT22;1652;51.31805600;6.20194400;2023-12-07T12:05:42;3.50;99.90
3281;DHT22;1652;51.31805600;6.20194400;2023-12-07T12:08:10;3.60;99.90
3281;DHT22;1652;51.31805600;6.20194400;2023-12-07T12:10:38;3.60;1.00
3281;DHT22;1652;51.31805600;6.20194400;2023-12-07T12:13:05;3.60;48.80
3281;DHT22;1652;51.31805600;6.20194400;2023-12-07T12:15:32;3.70;1.00
3281;DHT22;1652;51.31805600;6.20194400;2023-12-07T12:18:00;3.70;1.00
3281;DHT22;1652;51.31805600;6.20194400;2023-12-07T12:20:28;3.80;1.00
3281;DHT22;1652;51.31805600;6.20194400;2023-12-07T12:22:55;3.80;99.90
3281;DHT22;1652;51.31805600;6.20194400;2023-12-07T12:25:27;3.80;1.00
3281;DHT22;1652;51.31805600;6.20194400;2023-12-07T12:27:59;3.80;1.00
3281;DHT22;1652;51.31805600;6.20194400;2023-12-07T12:30:31;3.90;1.00
3281;DHT22;1652;51.31805600;6.20194400;2023-12-07T12:32:59;4.00;1.00
3281;DHT22;1652;51.31805600;6.20194400;2023-12-07T12:35:26;4.00;99.90
3281;DHT22;1652;51.31805600;6.20194400;2023-12-07T12:37:54;4.00;99.90
3281;DHT22;1652;51.31805600;6.20194400;2023-12-07T12:40:27;4.10;99.90
3281;DHT22;1652;51.31805600;6.20194400;2023-12-07T12:42:56;4.10;99.90
3281;DHT22;1652;51.31805600;6.20194400;2023-12-07T12:45:23;4.20;1.00
3281;DHT22;1652;51.31805600;6.20194400;2023-12-07T12:47:50;4.20;1.00
3281;DHT22;1652;51.31805600;6.20194400;2023-12-07T12:50:40;4.20;1.00
3281;DHT22;1652;51.31805600;6.20194400;2023-12-07T12:53:09;4.30;1.00
3281;DHT22;1652;51.31805600;6.20194400;2023-12-07T12:55:40;4.20;1.00
3281;DHT22;1652;51.31805600;6.20194400;2023-12-07T12:58:09;4.30;99.90
3281;DHT22;1652;51.31805600;6.20194400;2023-12-07T13:00:40;4.30;1.00
3281;DHT22;1652;51.31805600;6.20194400;2023-12-07T13:03:11;4.30;99.90
3281;DHT22;1652;51.31805600;6.20194400;2023-12-07T13:05:40;4.20;99.90
3281;DHT22;1652;51.31805600;6.20194400;2023-12-07T13:08:07;4.20;1.00
3281;DHT22;1652;51.31805600;6.20194400;2023-12-07T13:10:40;4.30;1.00
3281;DHT22;1652;51.31805600;6.20194400;2023-12-07T13:13:08;4.30;1.00
3281;DHT22;1652;51.31805600;6.20194400;2023-12-07T13:15:35;4.30;99.90
3281;DHT22;1652;51.31805600;6.20194400;2023-12-07T13:18:02;4.30;1.00
3281;DHT22;1652;51.31805600;6.20194400;2023-12-07T13:20:34;4.40;99.90
3281;DHT22;1652;51.31805600;6.20194400;2023-12-07T13:23:19;4.30;99.90
3281;DHT22;1652;51.31805600;6.20194400;2023-12-07T13:25:48;4.30;14.20
3281;DHT22;1652;51.31805600;6.20194400;2023-12-07T13:28:15;4.40;57.20
3281;DHT22;1652;51.31805600;6.20194400;2023-12-07T13:30:42;4.40;1.00
3281;DHT22;1652;51.31805600;6.20194400;2023-12-07T13:33:09;4.40;99.90
3281;DHT22;1652;51.31805600;6.20194400;2023-12-07T13:35:51;4.40;99.90
3281;DHT22;1652;51.31805600;6.20194400;2023-12-07T13:38:22;4.40;99.90
3281;DHT22;1652;51.31805600;6.20194400;2023-12-07T13:40:50;4.40;99.90
3281;DHT22;1652;51.31805600;6.20194400;2023-12-07T13:43:17;4.40;99.90
3281;DHT22;1652;51.31805600;6.20194400;2023-12-07T13:45:45;4.40;99.90
3281;DHT22;1652;51.31805600;6.20194400;2023-12-07T13:48:12;4.40;1.00
3281;DHT22;1652;51.31805600;6.20194400;2023-12-07T13:50:41;4.50;1.00
3281;DHT22;1652;51.31805600;6.20194400;2023-12-07T13:53:08;4.60;71.50
3281;DHT22;1652;51.31805600;6.20194400;2023-12-07T13:55:38;4.40;1.00
3281;DHT22;1652;51.31805600;6.20194400;2023-12-07T13:58:06;4.30;99.90
3281;DHT22;1652;51.31805600;6.20194400;2023-12-07T14:00:33;4.20;1.00
3281;DHT22;1652;51.31805600;6.20194400;2023-12-07T14:03:01;4.20;99.90
3281;DHT22;1652;51.31805600;6.20194400;2023-12-07T14:05:28;4.20;99.90
3281;DHT22;1652;51.31805600;6.20194400;2023-12-07T14:07:55;4.20;99.90
3281;DHT22;1652;51.31805600;6.20194400;2023-12-07T14:10:23;4.10;1.00
3281;DHT22;1652;51.31805600;6.20194400;2023-12-07T14:12:50;4.00;1.00
3281;DHT22;1652;51.31805600;6.20194400;2023-12-07T14:15:17;4.00;1.00